createdAt,value
2022-10-11T00:00:05.813Z,4.79
2022-10-11T00:01:05.832Z,4.77
2022-10-11T00:02:05.769Z,4.77
2022-10-11T00:03:05.767Z,4.78
2022-10-11T00:04:05.810Z,4.75
2022-10-11T00:05:05.743Z,4.72
2022-10-11T00:06:06.227Z,4.71
2022-10-11T00:07:05.726Z,4.69
2022-10-11T00:08:05.695Z,4.67
2022-10-11T00:09:05.702Z,4.66
2022-10-11T00:10:05.697Z,4.63
2022-10-11T00:11:05.712Z,4.64
2022-10-11T00:12:05.661Z,4.63
2022-10-11T00:13:05.678Z,4.61
2022-10-11T00:14:05.668Z,4.61
2022-10-11T00:15:05.652Z,4.63
2022-10-11T00:16:06.017Z,4.60
2022-10-11T00:17:05.648Z,4.60
2022-10-11T00:18:05.683Z,4.60
2022-10-11T00:19:05.800Z,4.59
2022-10-11T00:20:05.573Z,4.59
2022-10-11T00:21:05.581Z,4.57
2022-10-11T00:22:05.590Z,4.56
2022-10-11T00:23:05.553Z,4.57
2022-10-11T00:24:05.535Z,4.54
2022-10-11T00:25:05.544Z,4.54
2022-10-11T00:26:05.907Z,4.53
2022-10-11T00:27:05.520Z,4.51
2022-10-11T00:28:05.505Z,4.49
2022-10-11T00:29:05.513Z,4.49
2022-10-11T00:30:05.498Z,4.49
2022-10-11T00:31:05.881Z,4.49
2022-10-11T00:32:05.455Z,4.48
2022-10-11T00:33:05.455Z,4.45
2022-10-11T00:34:05.454Z,4.45
2022-10-11T00:35:05.435Z,4.43
2022-10-11T00:36:05.699Z,4.43
2022-10-11T00:37:05.433Z,4.42
2022-10-11T00:38:05.399Z,4.41
2022-10-11T00:39:05.434Z,4.41
2022-10-11T00:40:05.413Z,4.38
2022-10-11T00:41:05.393Z,4.38
2022-10-11T00:42:05.351Z,4.38
2022-10-11T00:43:05.351Z,4.35
2022-10-11T00:44:05.326Z,4.34
2022-10-11T00:45:05.322Z,4.34
2022-10-11T00:46:05.679Z,4.30
2022-10-11T00:47:05.334Z,4.28
2022-10-11T00:48:05.296Z,4.30
2022-10-11T00:49:05.435Z,4.27
2022-10-11T00:50:05.298Z,4.24
2022-10-11T00:51:05.606Z,4.24
2022-10-11T00:52:05.259Z,4.24
2022-10-11T00:53:05.239Z,4.24
2022-10-11T00:54:05.227Z,4.24
2022-10-11T00:55:05.230Z,4.24
2022-10-11T00:56:05.553Z,4.23
2022-10-11T00:57:05.204Z,4.23
2022-10-11T00:58:05.179Z,4.21
2022-10-11T00:59:05.296Z,4.21
2022-10-11T01:00:05.160Z,4.18
2022-10-11T01:01:05.216Z,4.21
2022-10-11T01:02:05.153Z,4.18
2022-10-11T01:03:05.135Z,4.20
2022-10-11T01:04:05.120Z,4.18
2022-10-11T01:05:27.633Z,4.17
2022-10-11T01:06:05.516Z,4.12
2022-10-11T01:07:05.113Z,4.10
2022-10-11T01:08:05.072Z,4.09
2022-10-11T01:09:05.095Z,4.09
2022-10-11T01:10:05.077Z,4.10
2022-10-11T01:11:05.051Z,4.09
2022-10-11T01:12:05.132Z,4.09
2022-10-11T01:13:05.041Z,4.08
2022-10-11T01:14:05.011Z,4.06
2022-10-11T01:15:05.029Z,4.03
2022-10-11T01:16:05.313Z,4.05
2022-10-11T01:17:05.005Z,4.02
2022-10-11T01:18:04.999Z,4.00
2022-10-11T01:19:04.987Z,4.02
2022-10-11T01:20:04.955Z,4.06
2022-10-11T01:21:04.945Z,4.09
2022-10-11T01:22:07.531Z,4.10
2022-10-11T01:23:04.934Z,4.13
2022-10-11T01:24:08.597Z,4.13
2022-10-11T01:25:04.906Z,4.13
2022-10-11T01:26:05.204Z,4.16
2022-10-11T01:27:04.889Z,4.17
2022-10-11T01:28:04.870Z,4.16
2022-10-11T01:29:04.872Z,4.13
2022-10-11T01:30:04.884Z,4.12
2022-10-11T01:31:04.853Z,4.10
2022-10-11T01:32:04.832Z,4.12
2022-10-11T01:33:04.827Z,4.09
2022-10-11T01:34:04.817Z,4.09
2022-10-11T01:35:04.805Z,4.10
2022-10-11T01:36:04.913Z,4.12
2022-10-11T01:37:04.776Z,4.08
2022-10-11T01:38:06.010Z,4.09
2022-10-11T01:39:04.776Z,4.08
2022-10-11T01:40:04.754Z,4.06
2022-10-11T01:41:04.743Z,4.03
2022-10-11T01:42:05.532Z,4.03
2022-10-11T01:43:04.748Z,4.03
2022-10-11T01:44:05.653Z,4.00
2022-10-11T01:45:04.707Z,3.99
2022-10-11T01:46:05.002Z,3.99
2022-10-11T01:47:04.688Z,3.99
2022-10-11T01:48:04.655Z,3.96
2022-10-11T01:49:04.650Z,3.98
2022-10-11T01:50:04.650Z,3.96
2022-10-11T01:51:04.651Z,3.98
2022-10-11T01:52:04.614Z,3.98
2022-10-11T01:53:04.608Z,3.96
2022-10-11T01:54:04.602Z,3.96
2022-10-11T01:55:09.618Z,3.98
2022-10-11T01:56:04.897Z,3.98
2022-10-11T01:57:04.611Z,3.96
2022-10-11T01:58:04.565Z,3.92
2022-10-11T01:59:04.555Z,3.92
2022-10-11T02:00:04.551Z,3.91
2022-10-11T02:01:04.565Z,3.90
2022-10-11T02:02:04.511Z,3.91
2022-10-11T02:03:04.514Z,3.88
2022-10-11T02:04:04.496Z,3.88
2022-10-11T02:05:04.499Z,3.87
2022-10-11T02:06:04.881Z,3.87
2022-10-11T02:07:04.475Z,3.85
2022-10-11T02:08:04.458Z,3.82
2022-10-11T02:09:07.907Z,3.81
2022-10-11T02:10:04.440Z,3.82
2022-10-11T02:11:04.443Z,3.81
2022-10-11T02:12:04.400Z,3.81
2022-10-11T02:13:04.421Z,3.80
2022-10-11T02:14:04.386Z,3.80
2022-10-11T02:15:04.390Z,3.78
2022-10-11T02:16:04.734Z,3.76
2022-10-11T02:17:04.360Z,3.76
2022-10-11T02:18:04.352Z,3.76
2022-10-11T02:19:04.374Z,3.74
2022-10-11T02:20:04.328Z,3.73
2022-10-11T02:21:04.324Z,3.73
2022-10-11T02:22:04.303Z,3.72
2022-10-11T02:23:04.310Z,3.70
2022-10-11T02:24:04.285Z,3.70
2022-10-11T02:25:04.291Z,3.69
2022-10-11T02:26:04.704Z,3.69
2022-10-11T02:27:04.271Z,3.69
2022-10-11T02:28:04.240Z,3.66
2022-10-11T02:29:04.240Z,3.67
2022-10-11T02:30:04.237Z,3.66
2022-10-11T02:31:04.223Z,3.63
2022-10-11T02:32:04.221Z,3.64
2022-10-11T02:33:04.201Z,3.63
2022-10-11T02:34:04.175Z,3.62
2022-10-11T02:35:04.192Z,3.63
2022-10-11T02:36:04.399Z,3.60
2022-10-11T02:37:04.164Z,3.60
2022-10-11T02:38:04.142Z,3.55
2022-10-11T02:39:04.139Z,3.54
2022-10-11T02:40:04.118Z,3.51
2022-10-11T02:41:04.133Z,3.51
2022-10-11T02:42:04.119Z,3.48
2022-10-11T02:43:04.105Z,3.46
2022-10-11T02:44:04.079Z,3.45
2022-10-11T02:45:04.064Z,3.45
2022-10-11T02:46:04.548Z,3.42
2022-10-11T02:47:04.055Z,3.41
2022-10-11T02:48:04.033Z,3.42
2022-10-11T02:49:04.049Z,3.42
2022-10-11T02:50:04.014Z,3.42
2022-10-11T02:51:04.038Z,3.42
2022-10-11T02:52:04.000Z,3.44
2022-10-11T02:53:03.976Z,3.44
2022-10-11T02:54:03.979Z,3.44
2022-10-11T02:55:03.966Z,3.42
2022-10-11T02:56:04.261Z,3.45
2022-10-11T02:57:03.969Z,3.41
2022-10-11T02:58:03.937Z,3.44
2022-10-11T02:59:03.936Z,3.44
2022-10-11T03:00:03.918Z,3.44
2022-10-11T03:01:03.922Z,3.44
2022-10-11T03:02:03.944Z,3.44
2022-10-11T03:03:03.912Z,3.42
2022-10-11T03:04:03.869Z,3.44
2022-10-11T03:05:03.874Z,3.41
2022-10-11T03:06:04.249Z,3.35
2022-10-11T03:07:03.847Z,3.36
2022-10-11T03:08:03.822Z,3.37
2022-10-11T03:09:03.832Z,3.36
2022-10-11T03:10:03.846Z,3.35
2022-10-11T03:11:03.806Z,3.35
2022-10-11T03:12:03.782Z,3.33
2022-10-11T03:13:03.786Z,3.32
2022-10-11T03:14:03.760Z,3.32
2022-10-11T03:15:03.774Z,3.30
2022-10-11T03:16:03.960Z,3.30
2022-10-11T03:17:23.714Z,3.30
2022-10-11T03:18:03.731Z,3.29
2022-10-11T03:19:03.723Z,3.30
2022-10-11T03:20:03.699Z,3.29
2022-10-11T03:21:03.708Z,3.29
2022-10-11T03:22:03.686Z,3.29
2022-10-11T03:23:03.679Z,3.29
2022-10-11T03:24:03.649Z,3.27
2022-10-11T03:25:04.760Z,3.26
2022-10-11T03:26:04.092Z,3.25
2022-10-11T03:27:03.646Z,3.26
2022-10-11T03:28:03.616Z,3.26
2022-10-11T03:29:03.619Z,3.26
2022-10-11T03:30:03.594Z,3.23
2022-10-11T03:31:03.755Z,3.23
2022-10-11T03:32:03.566Z,3.25
2022-10-11T03:33:03.564Z,3.23
2022-10-11T03:34:03.554Z,3.23
2022-10-11T03:35:03.549Z,3.22
2022-10-11T03:36:03.888Z,3.22
2022-10-11T03:37:03.550Z,3.22
2022-10-11T03:38:03.535Z,3.20
2022-10-11T03:39:03.498Z,3.20
2022-10-11T03:40:03.550Z,3.20
2022-10-11T03:41:03.490Z,3.20
2022-10-11T03:42:03.468Z,3.18
2022-10-11T03:43:03.460Z,3.17
2022-10-11T03:44:03.457Z,3.17
2022-10-11T03:45:03.434Z,3.18
2022-10-11T03:46:03.934Z,3.15
2022-10-11T03:47:04.456Z,3.14
2022-10-11T03:48:03.422Z,3.14
2022-10-11T03:49:03.399Z,3.12
2022-10-11T03:50:03.397Z,3.12
2022-10-11T03:51:03.414Z,3.08
2022-10-11T03:52:03.370Z,3.09
2022-10-11T03:53:03.350Z,3.09
2022-10-11T03:54:03.387Z,3.09
2022-10-11T03:55:03.338Z,3.09
2022-10-11T03:56:08.073Z,3.09
2022-10-11T03:57:03.327Z,3.09
2022-10-11T03:58:03.311Z,3.08
2022-10-11T03:59:03.291Z,3.09
2022-10-11T04:00:03.298Z,3.09
2022-10-11T04:01:03.269Z,3.08
2022-10-11T04:02:03.325Z,3.05
2022-10-11T04:03:03.242Z,3.07
2022-10-11T04:04:03.853Z,3.04
2022-10-11T04:05:03.242Z,3.05
2022-10-11T04:06:03.725Z,3.04
2022-10-11T04:07:03.290Z,3.02
2022-10-11T04:08:03.198Z,3.02
2022-10-11T04:09:03.196Z,3.02
2022-10-11T04:10:03.203Z,3.04
2022-10-11T04:11:03.163Z,3.00
2022-10-11T04:12:03.172Z,3.00
2022-10-11T04:13:03.152Z,3.02
2022-10-11T04:14:03.139Z,3.00
2022-10-11T04:15:03.126Z,2.99
2022-10-11T04:16:03.654Z,2.99
2022-10-11T04:17:03.098Z,3.02
2022-10-11T04:18:03.100Z,2.99
2022-10-11T04:19:03.083Z,2.97
2022-10-11T04:20:03.085Z,2.96
2022-10-11T04:21:03.085Z,2.97
2022-10-11T04:22:03.051Z,2.93
2022-10-11T04:23:03.045Z,2.94
2022-10-11T04:24:03.037Z,2.94
2022-10-11T04:25:03.028Z,2.97
2022-10-11T04:26:03.344Z,2.99
2022-10-11T04:27:02.989Z,2.99
2022-10-11T04:28:03.041Z,2.97
2022-10-11T04:29:02.985Z,2.99
2022-10-11T04:30:02.973Z,3.02
2022-10-11T04:31:02.963Z,3.02
2022-10-11T04:32:02.995Z,3.04
2022-10-11T04:33:02.936Z,3.00
2022-10-11T04:34:02.944Z,3.02
2022-10-11T04:35:04.758Z,3.02
2022-10-11T04:36:03.399Z,3.04
2022-10-11T04:37:02.897Z,3.00
2022-10-11T04:38:02.911Z,3.00
2022-10-11T04:39:02.872Z,2.99
2022-10-11T04:40:02.875Z,2.99
2022-10-11T04:41:02.855Z,2.97
2022-10-11T04:42:02.845Z,2.99
2022-10-11T04:43:02.865Z,2.99
2022-10-11T04:44:02.832Z,2.96
2022-10-11T04:45:02.812Z,2.97
2022-10-11T04:46:02.811Z,2.97
2022-10-11T04:47:02.784Z,2.97
2022-10-11T04:48:02.869Z,2.97
2022-10-11T04:49:02.778Z,2.96
2022-10-11T04:50:02.770Z,2.96
2022-10-11T04:51:02.746Z,2.97
2022-10-11T04:52:02.742Z,2.96
2022-10-11T04:53:02.739Z,2.96
2022-10-11T04:54:02.722Z,2.93
2022-10-11T04:55:02.762Z,2.94
2022-10-11T04:56:03.176Z,2.93
2022-10-11T04:57:02.683Z,2.93
2022-10-11T04:58:02.709Z,2.90
2022-10-11T04:59:02.662Z,2.91
2022-10-11T05:00:02.729Z,2.91
2022-10-11T05:01:02.646Z,2.91
2022-10-11T05:02:02.728Z,2.93
2022-10-11T05:03:02.621Z,2.93
2022-10-11T05:04:02.627Z,2.94
2022-10-11T05:05:02.622Z,2.93
2022-10-11T05:06:05.585Z,2.93
2022-10-11T05:07:02.589Z,2.90
2022-10-11T05:08:02.589Z,2.90
2022-10-11T05:09:02.558Z,2.87
2022-10-11T05:10:02.562Z,2.90
2022-10-11T05:11:02.534Z,2.89
2022-10-11T05:12:02.579Z,2.89
2022-10-11T05:13:02.533Z,2.89
2022-10-11T05:14:02.524Z,2.89
2022-10-11T05:15:02.500Z,2.89
2022-10-11T05:16:04.896Z,2.89
2022-10-11T05:17:02.482Z,2.87
2022-10-11T05:18:02.505Z,2.86
2022-10-11T05:19:02.413Z,2.86
2022-10-11T05:20:02.471Z,2.84
2022-10-11T05:21:02.435Z,2.84
2022-10-11T05:22:02.422Z,2.81
2022-10-11T05:23:02.396Z,2.82
2022-10-11T05:24:02.733Z,2.79
2022-10-11T05:25:02.415Z,2.81
2022-10-11T05:26:02.854Z,2.79
2022-10-11T05:27:03.567Z,2.79
2022-10-11T05:28:02.332Z,2.81
2022-10-11T05:29:02.447Z,2.79
2022-10-11T05:30:02.294Z,2.81
2022-10-11T05:31:02.280Z,2.79
2022-10-11T05:32:02.278Z,2.79
2022-10-11T05:33:02.270Z,2.81
2022-10-11T05:34:02.269Z,2.78
2022-10-11T05:35:02.234Z,2.78
2022-10-11T05:36:02.614Z,2.75
2022-10-11T05:37:02.215Z,2.75
2022-10-11T05:38:02.225Z,2.75
2022-10-11T05:39:02.207Z,2.73
2022-10-11T05:40:02.190Z,2.73
2022-10-11T05:41:02.175Z,2.72
2022-10-11T05:42:04.557Z,2.73
2022-10-11T05:43:02.151Z,2.75
2022-10-11T05:44:02.170Z,2.75
2022-10-11T05:45:02.130Z,2.72
2022-10-11T05:46:02.468Z,2.71
2022-10-11T05:47:02.119Z,2.72
2022-10-11T05:48:02.111Z,2.71
2022-10-11T05:49:02.130Z,2.72
2022-10-11T05:50:02.079Z,2.69
2022-10-11T05:51:02.104Z,2.71
2022-10-11T05:52:02.066Z,2.71
2022-10-11T05:53:02.066Z,2.71
2022-10-11T05:54:02.043Z,2.73
2022-10-11T05:55:02.046Z,2.75
2022-10-11T05:56:02.367Z,2.75
2022-10-11T05:57:02.026Z,2.76
2022-10-11T05:58:02.014Z,2.75
2022-10-11T05:59:02.636Z,2.78
2022-10-11T06:00:02.003Z,2.79
2022-10-11T06:01:02.093Z,2.81
2022-10-11T06:02:01.968Z,2.79
2022-10-11T06:03:01.941Z,2.81
2022-10-11T06:04:01.945Z,2.81
2022-10-11T06:05:01.941Z,2.81
2022-10-11T06:06:01.931Z,2.84
2022-10-11T06:07:01.904Z,2.86
2022-10-11T06:08:01.893Z,2.86
2022-10-11T06:09:01.987Z,2.87
2022-10-11T06:10:01.902Z,2.89
2022-10-11T06:11:01.863Z,2.90
2022-10-11T06:12:01.862Z,2.93
2022-10-11T06:13:01.845Z,2.94
2022-10-11T06:14:01.871Z,2.94
2022-10-11T06:15:01.837Z,2.96
2022-10-11T06:16:02.174Z,2.97
2022-10-11T06:17:02.571Z,2.97
2022-10-11T06:18:01.792Z,2.99
2022-10-11T06:19:01.771Z,3.00
2022-10-11T06:20:01.788Z,3.02
2022-10-11T06:21:01.761Z,3.04
2022-10-11T06:22:01.774Z,3.05
2022-10-11T06:23:01.737Z,3.09
2022-10-11T06:24:01.842Z,3.11
2022-10-11T06:25:01.715Z,3.12
2022-10-11T06:26:01.943Z,3.15
2022-10-11T06:27:01.714Z,3.15
2022-10-11T06:28:01.730Z,3.18
2022-10-11T06:29:01.784Z,3.18
2022-10-11T06:30:01.675Z,3.17
2022-10-11T06:31:01.650Z,3.20
2022-10-11T06:32:01.653Z,3.22
2022-10-11T06:33:04.758Z,3.23
2022-10-11T06:34:01.646Z,3.25
2022-10-11T06:35:01.631Z,3.25
2022-10-11T06:36:01.826Z,3.29
2022-10-11T06:37:01.584Z,3.32
2022-10-11T06:38:01.582Z,3.35
2022-10-11T06:39:01.600Z,3.41
2022-10-11T06:40:01.563Z,3.42
2022-10-11T06:41:01.607Z,3.44
2022-10-11T06:42:01.638Z,3.46
2022-10-11T06:43:01.518Z,3.46
2022-10-11T06:44:01.558Z,3.48
2022-10-11T06:45:01.508Z,3.51
2022-10-11T06:46:01.754Z,3.54
2022-10-11T06:47:01.545Z,3.56
2022-10-11T06:48:01.490Z,3.62
2022-10-11T06:49:01.466Z,3.67
2022-10-11T06:50:01.468Z,3.70
2022-10-11T06:51:01.521Z,3.74
2022-10-11T06:52:01.445Z,3.80
2022-10-11T06:53:01.417Z,3.82
2022-10-11T06:54:01.419Z,3.88
2022-10-11T06:55:01.397Z,3.91
2022-10-11T06:56:01.502Z,3.91
2022-10-11T06:57:01.380Z,3.98
2022-10-11T06:58:01.364Z,4.02
2022-10-11T06:59:01.356Z,4.05
2022-10-11T07:00:01.390Z,4.08
2022-10-11T07:01:01.403Z,4.12
2022-10-11T07:02:01.328Z,4.17
2022-10-11T07:03:01.305Z,4.21
2022-10-11T07:04:01.314Z,4.24
2022-10-11T07:05:01.321Z,4.30
2022-10-11T07:06:02.645Z,4.36
2022-10-11T07:07:01.290Z,4.36
2022-10-11T07:08:01.270Z,4.38
2022-10-11T07:09:01.260Z,4.41
2022-10-11T07:10:01.283Z,4.45
2022-10-11T07:11:01.260Z,4.49
2022-10-11T07:12:01.267Z,4.53
2022-10-11T07:13:01.207Z,4.59
2022-10-11T07:14:01.206Z,4.66
2022-10-11T07:15:01.204Z,4.71
2022-10-11T07:16:01.210Z,4.75
2022-10-11T07:17:01.179Z,4.78
2022-10-11T07:18:01.169Z,4.79
2022-10-11T07:19:01.447Z,4.89
2022-10-11T07:20:01.267Z,4.98
2022-10-11T07:21:01.146Z,5.06
2022-10-11T07:22:01.178Z,5.14
2022-10-11T07:23:01.104Z,5.21
2022-10-11T07:24:01.156Z,5.27
2022-10-11T07:25:01.078Z,5.34
2022-10-11T07:26:01.095Z,5.37
2022-10-11T07:27:01.107Z,5.40
2022-10-11T07:28:01.077Z,5.51
2022-10-11T07:29:01.174Z,5.58
2022-10-11T07:30:01.041Z,5.66
2022-10-11T07:31:02.025Z,5.73
2022-10-11T07:32:01.035Z,5.80
2022-10-11T07:33:00.997Z,5.88
2022-10-11T07:34:01.050Z,5.97
2022-10-11T07:35:00.983Z,6.08
2022-10-11T07:36:01.039Z,6.13
2022-10-11T07:37:00.988Z,6.27
2022-10-11T07:38:00.987Z,6.35
2022-10-11T07:39:00.974Z,6.45
2022-10-11T07:40:00.940Z,6.55
2022-10-11T07:41:00.916Z,6.61
2022-10-11T07:42:00.921Z,6.68
2022-10-11T07:43:00.927Z,6.78
2022-10-11T07:44:00.889Z,6.91
2022-10-11T07:45:00.879Z,7.03
2022-10-11T07:46:00.873Z,7.18
2022-10-11T07:47:00.854Z,7.33
2022-10-11T07:48:00.840Z,7.49
2022-10-11T07:49:00.858Z,7.61
2022-10-11T07:50:00.819Z,7.77
2022-10-11T07:51:00.824Z,7.88
2022-10-11T07:52:00.804Z,8.01
2022-10-11T07:53:00.817Z,8.10
2022-10-11T07:54:06.185Z,8.21
2022-10-11T07:55:00.769Z,8.31
2022-10-11T07:56:00.759Z,8.38
2022-10-11T07:57:00.758Z,8.50
2022-10-11T07:58:00.736Z,8.62
2022-10-11T07:59:00.760Z,8.70
2022-10-11T08:00:00.723Z,8.77
2022-10-11T08:01:00.745Z,8.86
2022-10-11T08:02:00.766Z,8.95
2022-10-11T08:03:00.693Z,9.06
2022-10-11T08:04:00.674Z,9.16
2022-10-11T08:05:00.711Z,9.24
2022-10-11T08:06:00.666Z,9.33
2022-10-11T08:07:00.648Z,9.40
2022-10-11T08:08:00.628Z,9.45
2022-10-11T08:09:00.646Z,9.51
2022-10-11T08:10:00.603Z,9.59
2022-10-11T08:11:00.610Z,9.66
2022-10-11T08:12:00.584Z,9.75
2022-10-11T08:13:04.202Z,9.85
2022-10-11T08:14:00.563Z,9.94
2022-10-11T08:15:00.570Z,9.94
2022-10-11T08:16:00.557Z,10.06
2022-10-11T08:17:00.533Z,10.18
2022-10-11T08:18:00.516Z,10.27
2022-10-11T08:19:00.610Z,10.34
2022-10-11T08:20:00.510Z,10.42
2022-10-11T08:21:00.496Z,10.54
2022-10-11T08:22:00.497Z,10.58
2022-10-11T08:23:00.477Z,10.65
2022-10-11T08:24:00.454Z,10.70
2022-10-11T08:25:00.460Z,10.79
2022-10-11T08:26:00.428Z,10.86
2022-10-11T08:27:00.435Z,10.83
2022-10-11T08:28:00.422Z,10.93
2022-10-11T08:29:00.546Z,10.97
2022-10-11T08:30:00.407Z,11.03
2022-10-11T08:31:00.391Z,11.12
2022-10-11T08:32:00.374Z,11.16
2022-10-11T08:33:02.189Z,11.28
2022-10-11T08:34:00.344Z,11.36
2022-10-11T08:35:00.357Z,11.43
2022-10-11T08:36:00.331Z,11.52
2022-10-11T08:37:00.334Z,11.58
2022-10-11T08:38:00.320Z,11.66
2022-10-11T08:39:00.307Z,11.79
2022-10-11T08:40:00.323Z,11.93
2022-10-11T08:41:00.286Z,12.04
2022-10-11T08:42:00.276Z,12.07
2022-10-11T08:43:00.276Z,12.11
2022-10-11T08:44:00.271Z,12.14
2022-10-11T08:45:15.678Z,12.26
2022-10-11T08:46:00.226Z,12.36
2022-10-11T08:47:00.628Z,12.33
2022-10-11T08:48:00.245Z,12.32
2022-10-11T08:49:00.214Z,12.21
2022-10-11T08:50:00.319Z,12.14
2022-10-11T08:51:00.175Z,12.07
2022-10-11T08:52:00.181Z,12.05
2022-10-11T08:53:00.159Z,12.14
2022-10-11T08:54:04.728Z,12.13
2022-10-11T08:55:00.134Z,12.14
2022-10-11T08:56:00.115Z,12.23
2022-10-11T08:57:00.152Z,12.26
2022-10-11T08:58:00.106Z,12.28
2022-10-11T08:59:00.103Z,12.35
2022-10-11T09:00:00.136Z,12.38
2022-10-11T09:01:00.095Z,12.48
2022-10-11T09:02:00.133Z,12.55
2022-10-11T09:03:09.032Z,12.61
2022-10-11T09:04:00.046Z,12.63
2022-10-11T09:05:00.039Z,12.59
2022-10-11T09:06:00.036Z,12.65
2022-10-11T09:07:04.583Z,12.73
2022-10-11T09:07:59.986Z,12.80
2022-10-11T09:08:59.995Z,12.84
2022-10-11T09:09:59.960Z,12.88
2022-10-11T09:11:00.037Z,12.98
2022-10-11T09:11:59.984Z,13.02
2022-10-11T09:12:59.938Z,13.14
2022-10-11T09:13:59.922Z,13.11
2022-10-11T09:14:59.922Z,13.13
2022-10-11T09:15:59.897Z,13.13
2022-10-11T09:16:59.905Z,13.16
2022-10-11T09:17:59.886Z,13.13
2022-10-11T09:18:59.855Z,13.14
2022-10-11T09:19:59.857Z,13.05
2022-10-11T09:20:59.854Z,13.01
2022-10-11T09:21:59.854Z,12.98
2022-10-11T09:22:59.845Z,13.04
2022-10-11T09:23:59.804Z,13.04
2022-10-11T09:24:59.817Z,13.11
2022-10-11T09:25:59.793Z,13.20
2022-10-11T09:26:59.783Z,13.26
2022-10-11T09:28:03.876Z,13.21
2022-10-11T09:29:01.481Z,13.26
2022-10-11T09:29:59.758Z,13.32
2022-10-11T09:30:59.747Z,13.42
2022-10-11T09:31:59.722Z,13.47
2022-10-11T09:32:59.754Z,13.46
2022-10-11T09:33:59.711Z,13.47
2022-10-11T09:34:59.699Z,13.47
2022-10-11T09:35:59.688Z,13.36
2022-10-11T09:36:59.677Z,13.35
2022-10-11T09:37:59.665Z,13.42
2022-10-11T09:39:04.252Z,13.47
2022-10-11T09:39:59.646Z,13.54
2022-10-11T09:40:59.640Z,13.54
2022-10-11T09:41:59.606Z,13.54
2022-10-11T09:42:59.628Z,13.64
2022-10-11T09:43:59.597Z,13.68
2022-10-11T09:44:59.600Z,13.76
2022-10-11T09:45:59.574Z,13.71
2022-10-11T09:46:59.568Z,13.75
2022-10-11T09:47:59.553Z,13.82
2022-10-11T09:48:59.582Z,14.04
2022-10-11T09:49:59.541Z,14.23
2022-10-11T09:50:59.528Z,14.41
2022-10-11T09:51:59.520Z,14.66
2022-10-11T09:52:59.523Z,14.83
2022-10-11T09:53:59.517Z,15.01
2022-10-11T09:54:59.475Z,15.10
2022-10-11T09:55:59.477Z,15.17
2022-10-11T09:56:59.463Z,15.26
2022-10-11T09:57:59.445Z,15.17
2022-10-11T09:58:59.452Z,15.23
2022-10-11T09:59:59.471Z,15.29
2022-10-11T10:01:02.786Z,15.29
2022-10-11T10:01:59.434Z,15.38
2022-10-11T10:02:59.404Z,15.51
2022-10-11T10:03:59.404Z,15.59
2022-10-11T10:04:59.380Z,15.73
2022-10-11T10:05:59.363Z,15.88
2022-10-11T10:06:59.360Z,16.34
2022-10-11T10:08:04.069Z,16.74
2022-10-11T10:08:59.355Z,17.16
2022-10-11T10:09:59.323Z,17.20
2022-10-11T10:10:59.844Z,17.09
2022-10-11T10:11:59.304Z,17.19
2022-10-11T10:12:59.291Z,17.14
2022-10-11T10:13:59.435Z,17.28
2022-10-11T10:14:59.596Z,17.45
2022-10-11T10:15:59.251Z,17.66
2022-10-11T10:16:59.252Z,18.24
2022-10-11T10:17:59.341Z,18.49
2022-10-11T10:18:59.227Z,18.67
2022-10-11T10:19:59.232Z,18.70
2022-10-11T10:20:59.225Z,18.96
2022-10-11T10:21:59.200Z,19.12
2022-10-11T10:22:59.195Z,19.31
2022-10-11T10:23:59.163Z,19.82
2022-10-11T10:24:59.222Z,19.52
2022-10-11T10:25:59.146Z,19.78
2022-10-11T10:26:59.122Z,20.36
2022-10-11T10:27:59.125Z,20.77
2022-10-11T10:28:59.250Z,20.79
2022-10-11T10:29:59.109Z,20.88
2022-10-11T10:30:59.110Z,20.60
2022-10-11T10:32:13.770Z,19.20
2022-10-11T10:32:59.166Z,19.74
2022-10-11T10:33:59.063Z,19.90
2022-10-11T10:34:59.055Z,20.39
2022-10-11T10:35:59.061Z,20.05
2022-10-11T10:36:59.041Z,20.00
2022-10-11T10:37:59.019Z,20.12
2022-10-11T10:38:59.022Z,20.22
2022-10-11T10:39:58.996Z,20.26
2022-10-11T10:40:59.010Z,20.22
2022-10-11T10:41:58.975Z,20.29
2022-10-11T10:42:58.969Z,20.44
2022-10-11T10:43:58.958Z,20.49
2022-10-11T10:44:58.957Z,20.52
2022-10-11T10:45:58.962Z,20.46
2022-10-11T10:46:58.953Z,21.14
2022-10-11T10:47:58.913Z,21.32
2022-10-11T10:49:58.894Z,21.47
2022-10-11T10:50:58.901Z,21.25
2022-10-11T10:51:58.975Z,21.44
2022-10-11T10:52:58.874Z,21.32
2022-10-11T10:53:58.852Z,21.38
2022-10-11T10:54:58.850Z,21.45
2022-10-11T10:55:58.830Z,21.34
2022-10-11T10:56:58.857Z,21.98
2022-10-11T10:57:58.803Z,22.52
2022-10-11T10:58:58.819Z,22.76
2022-10-11T10:59:58.805Z,22.19
2022-10-11T11:00:58.790Z,22.21
2022-10-11T11:02:06.784Z,21.90
2022-10-11T11:02:58.876Z,21.71
2022-10-11T11:03:58.753Z,21.45
2022-10-11T11:05:58.736Z,21.50
2022-10-11T11:06:58.743Z,21.51
2022-10-11T11:07:58.738Z,21.26
2022-10-11T11:08:58.715Z,21.23
2022-10-11T11:09:58.686Z,21.20
2022-10-11T11:10:58.692Z,20.65
2022-10-11T11:11:58.756Z,19.92
2022-10-11T11:12:58.675Z,19.53
2022-10-11T11:13:58.658Z,19.05
2022-10-11T11:14:58.650Z,18.63
2022-10-11T11:15:58.636Z,18.12
2022-10-11T11:16:58.638Z,18.06
2022-10-11T11:17:58.639Z,17.84
2022-10-11T11:18:58.605Z,17.73
2022-10-11T11:19:58.700Z,17.68
2022-10-11T11:20:58.579Z,17.57
2022-10-11T11:21:58.571Z,17.71
2022-10-11T11:22:58.584Z,17.46
2022-10-11T11:23:58.550Z,17.46
2022-10-11T11:24:58.553Z,17.66
2022-10-11T11:25:58.520Z,17.86
2022-10-11T11:26:58.541Z,17.94
2022-10-11T11:27:58.507Z,17.84
2022-10-11T11:28:58.507Z,17.69
2022-10-11T11:29:58.487Z,17.39
2022-10-11T11:30:58.523Z,17.30
2022-10-11T11:31:58.466Z,17.32
2022-10-11T11:32:58.471Z,17.57
2022-10-11T11:33:58.441Z,17.39
2022-10-11T11:34:58.438Z,17.45
2022-10-11T11:35:58.422Z,17.52
2022-10-11T11:36:58.432Z,17.54
2022-10-11T11:38:03.878Z,17.62
2022-10-11T11:38:58.429Z,17.66
2022-10-11T11:39:58.391Z,17.62
2022-10-11T11:40:58.383Z,17.57
2022-10-11T11:41:58.356Z,17.43
2022-10-11T11:42:58.346Z,17.37
2022-10-11T11:43:58.360Z,17.54
2022-10-11T11:44:58.343Z,17.79
2022-10-11T11:45:58.325Z,18.01
2022-10-11T11:46:58.315Z,18.06
2022-10-11T11:47:58.297Z,17.96
2022-10-11T11:48:58.341Z,18.12
2022-10-11T11:49:58.275Z,18.09
2022-10-11T11:50:58.266Z,18.08
2022-10-11T11:51:58.277Z,17.83
2022-10-11T11:52:58.250Z,17.79
2022-10-11T11:53:58.260Z,18.02
2022-10-11T11:55:03.027Z,18.42
2022-10-11T11:55:58.218Z,18.24
2022-10-11T11:56:58.215Z,18.17
2022-10-11T11:58:00.173Z,18.39
2022-10-11T11:58:58.234Z,18.34
2022-10-11T11:59:58.195Z,18.38
2022-10-11T12:00:58.173Z,18.26
2022-10-11T12:01:58.195Z,17.99
2022-10-11T12:02:58.155Z,17.37
2022-10-11T12:03:58.159Z,17.39
2022-10-11T12:04:58.144Z,17.19
2022-10-11T12:05:58.139Z,16.72
2022-10-11T12:07:15.015Z,16.47
2022-10-11T12:07:58.117Z,16.58
2022-10-11T12:08:58.108Z,16.88
2022-10-11T12:09:58.102Z,17.09
2022-10-11T12:10:58.061Z,17.12
2022-10-11T12:11:58.069Z,17.28
2022-10-11T12:12:58.037Z,17.13
2022-10-11T12:13:58.042Z,17.20
2022-10-11T12:14:58.035Z,17.06
2022-10-11T12:15:58.028Z,16.92
2022-10-11T12:16:58.001Z,16.72
2022-10-11T12:17:58.008Z,16.82
2022-10-11T12:18:57.975Z,16.91
2022-10-11T12:19:57.993Z,17.12
2022-10-11T12:20:57.938Z,17.32
2022-10-11T12:21:57.966Z,17.65
2022-10-11T12:22:57.928Z,18.05
2022-10-11T12:23:57.979Z,18.57
2022-10-11T12:24:57.941Z,19.22
2022-10-11T12:25:57.910Z,19.78
2022-10-11T12:26:57.891Z,20.00
2022-10-11T12:27:57.892Z,20.33
2022-10-11T12:28:57.867Z,20.49
2022-10-11T12:29:57.873Z,20.95
2022-10-11T12:30:57.865Z,21.13
2022-10-11T12:31:57.843Z,21.81
2022-10-11T12:32:57.824Z,22.23
2022-10-11T12:33:57.820Z,22.13
2022-10-11T12:34:57.819Z,22.81
2022-10-11T12:35:57.818Z,22.81
2022-10-11T12:36:57.780Z,22.71
2022-10-11T12:37:57.791Z,23.13
2022-10-11T12:38:57.766Z,23.18
2022-10-11T12:39:57.760Z,23.03
2022-10-11T12:40:57.756Z,22.70
2022-10-11T12:41:57.746Z,23.39
2022-10-11T12:42:57.722Z,23.63
2022-10-11T12:43:57.721Z,24.18
2022-10-11T12:44:57.696Z,24.56
2022-10-11T12:45:57.726Z,24.62
2022-10-11T12:46:57.687Z,23.18
2022-10-11T12:47:57.682Z,23.31
2022-10-11T12:48:57.674Z,23.46
2022-10-11T12:49:57.663Z,23.51
2022-10-11T12:51:02.834Z,22.48
2022-10-11T12:51:57.668Z,21.60
2022-10-11T12:52:57.615Z,22.52
2022-10-11T12:54:21.570Z,22.64
2022-10-11T12:54:57.625Z,22.70
2022-10-11T12:55:57.605Z,23.51
2022-10-11T12:56:57.603Z,23.70
2022-10-11T12:57:57.585Z,24.34
2022-10-11T12:58:57.569Z,24.10
2022-10-11T12:59:57.582Z,24.91
2022-10-11T13:00:57.570Z,24.68
2022-10-11T13:01:57.573Z,24.55
2022-10-11T13:02:57.536Z,23.98
2022-10-11T13:03:57.538Z,23.56
2022-10-11T13:04:57.511Z,23.45
2022-10-11T13:06:01.458Z,23.79
2022-10-11T13:06:57.506Z,24.25
2022-10-11T13:07:57.480Z,23.86
2022-10-11T13:08:57.470Z,23.10
2022-10-11T13:09:57.493Z,21.93